Time;durP1;ratioP1;P1;durP2;ratioP2;P2;SDS_P1;SDS_P2;PMS_P1;PMS_P2;Temp;Humidity;BMP_temperature;BMP_pressure;BME280_temperature;BME280_humidity;BME280_pressure;Samples;Min_cycle;Max_cycle;Signal;HPM_P1;HPM_P2
2022/09/23 00:01:01;;;;;;;5.23;2.37;;;;;;;-145.69;100.00;72365.59;5093051;28;20202;-80
2022/09/23 00:03:29;;;;;;;3.13;2.20;;;;;;;-145.69;100.00;72381.53;5093297;28;20224;-80
2022/09/23 00:06:01;;;;;;;6.07;2.40;;;;;;;-145.69;100.00;72383.53;5086771;28;20202;-80
2022/09/23 00:08:28;;;;;;;3.00;2.30;;;;;;;-145.69;100.00;72383.53;5091522;28;20678;-80
2022/09/23 00:10:55;;;;;;;2.63;2.00;;;;;;;-145.69;100.00;72369.59;5092423;28;20714;-81
2022/09/23 00:13:23;;;;;;;2.63;2.00;;;;;;;-145.69;100.00;72371.56;5092903;28;20212;-80
2022/09/23 00:15:49;;;;;;;4.70;2.30;;;;;;;-145.69;100.00;72385.50;5093110;28;20479;-81
2022/09/23 00:18:16;;;;;;;3.10;2.20;;;;;;;-145.69;100.00;72385.50;5092731;28;20194;-81
2022/09/23 00:20:43;;;;;;;3.30;2.20;;;;;;;-145.69;100.00;72375.56;5093134;28;20194;-81
2022/09/23 00:23:11;;;;;;;2.53;1.90;;;;;;;-145.69;100.00;72361.63;5083318;28;20206;-80
2022/09/23 00:25:38;;;;;;;3.03;2.20;;;;;;;-145.69;100.00;72361.63;5072954;28;20210;-80
2022/09/23 00:28:05;;;;;;;5.20;2.17;;;;;;;-145.69;100.00;72347.69;5072716;28;20715;-80
2022/09/23 00:30:31;;;;;;;3.13;2.40;;;;;;;-145.69;100.00;72355.66;5072898;28;20245;-80
2022/09/23 00:32:59;;;;;;;5.87;1.93;;;;;;;-145.69;100.00;72361.63;5072637;28;20732;-80
2022/09/23 00:35:25;;;;;;;2.93;2.03;;;;;;;-145.69;100.00;72373.56;5073064;28;20195;-80
2022/09/23 00:37:52;;;;;;;2.43;1.90;;;;;;;-145.69;100.00;72381.53;5079607;28;20204;-80
2022/09/23 00:40:20;;;;;;;4.07;2.13;;;;;;;-145.69;100.00;72393.47;5094042;28;20206;-80
2022/09/23 00:42:48;;;;;;;4.70;2.20;;;;;;;-145.69;100.00;72427.31;5093754;28;20201;-80
2022/09/23 00:45:16;;;;;;;3.07;2.33;;;;;;;-145.69;100.00;72425.31;5092979;28;20206;-80
2022/09/23 00:47:47;;;;;;;3.27;2.30;;;;;;;-145.69;100.00;72433.28;5092653;28;20201;-79
2022/09/23 00:50:22;;;;;;;4.10;2.60;;;;;;;-145.69;100.00;72431.28;5092507;28;20626;-80
2022/09/23 00:52:51;;;;;;;3.53;2.43;;;;;;;-145.69;100.00;72441.25;5088894;28;20225;-80
2022/09/23 00:55:24;;;;;;;3.87;2.30;;;;;;;-145.69;100.00;72453.19;5076536;28;20202;-79
2022/09/23 00:57:54;;;;;;;3.10;2.57;;;;;;;-145.69;100.00;72457.16;5076340;28;20199;-80
2022/09/23 01:00:22;;;;;;;5.80;2.50;;;;;;;-145.69;100.00;72459.16;5076395;28;20202;-80
2022/09/23 01:02:48;;;;;;;3.83;2.40;;;;;;;-145.69;100.00;72465.13;5074574;28;20207;-80
2022/09/23 01:05:19;;;;;;;5.03;2.40;;;;;;;-145.69;100.00;72467.13;5076213;28;20202;-78
2022/09/23 01:07:45;;;;;;;9.57;2.33;;;;;;;-145.69;100.00;72465.13;5075971;28;20293;-80
2022/09/23 01:10:15;;;;;;;4.97;2.37;;;;;;;-145.69;100.00;72465.13;5076155;28;20198;-80
2022/09/23 01:12:58;;;;;;;3.70;2.23;;;;;;;-145.69;100.00;72475.06;5075861;28;20238;-80
2022/09/23 01:15:31;;;;;;;2.30;2.00;;;;;;;-145.69;100.00;72483.03;5075916;28;20209;-80
2022/09/23 01:18:08;;;;;;;3.90;2.40;;;;;;;-145.69;100.00;72494.97;5075850;28;20207;-80
2022/09/23 01:20:55;;;;;;;3.00;2.20;;;;;;;-145.69;100.00;72496.97;5075879;28;20205;-81
2022/09/23 01:23:58;;;;;;;3.40;2.63;;;;;;;-145.69;100.00;72491.00;5076122;28;20657;-82
2022/09/23 01:26:46;;;;;;;3.20;2.43;;;;;;;-145.69;100.00;72491.00;5075951;28;20213;-81
2022/09/23 01:29:37;;;;;;;4.40;2.70;;;;;;;-145.69;100.00;72496.97;5075607;28;20207;-81
2022/09/23 01:32:13;;;;;;;4.40;2.50;;;;;;;-145.69;100.00;72504.94;5075735;28;20231;-81
2022/09/23 01:34:46;;;;;;;4.13;2.60;;;;;;;-145.69;100.00;72510.91;5072957;28;20289;-81
2022/09/23 01:37:21;;;;;;;4.97;2.73;;;;;;;-145.69;100.00;72512.91;5054561;28;20287;-80
2022/09/23 01:40:00;;;;;;;2.97;2.43;;;;;;;-145.69;100.00;72506.91;5055731;28;20205;-80
2022/09/23 01:42:32;;;;;;;6.80;2.80;;;;;;;-145.69;100.00;72522.84;5063528;28;20191;-81
2022/09/23 01:45:05;;;;;;;5.23;2.83;;;;;;;-145.69;100.00;72520.84;5075491;28;20199;-81
2022/09/23 01:47:37;;;;;;;3.93;2.77;;;;;;;-145.69;100.00;72508.91;5075416;28;20199;-81
2022/09/23 01:50:55;;;;;;;5.93;3.20;;;;;;;-145.69;100.00;72494.97;5075302;28;20235;-80
2022/09/23 01:52:58;;;;;;;4.27;2.67;;;;;;;-145.69;100.00;72483.03;5075111;28;20287;-80
2022/09/23 01:55:28;;;;;;;4.57;2.87;;;;;;;-145.69;100.00;72477.06;5075049;28;20211;-80
2022/09/23 01:58:01;;;;;;;3.30;2.60;;;;;;;-145.69;100.00;72483.03;5074786;28;20199;-79
2022/09/23 02:00:31;;;;;;;3.83;2.67;;;;;;;-145.69;100.00;72485.03;5075187;28;20587;-80
2022/09/23 02:03:04;;;;;;;3.70;2.60;;;;;;;-145.69;100.00;72485.03;5074764;28;20199;-80
2022/09/23 02:05:37;;;;;;;4.17;2.90;;;;;;;-145.69;100.00;72496.97;5074730;28;20225;-80
2022/09/23 02:08:09;;;;;;;4.90;2.40;;;;;;;-145.69;100.00;72494.97;5075131;28;20199;-79
2022/09/23 02:10:43;;;;;;;4.13;2.87;;;;;;;-145.69;100.00;72496.97;5075229;28;20217;-79
2022/09/23 02:13:15;;;;;;;4.30;2.73;;;;;;;-145.69;100.00;72493.00;5085267;28;20226;-79
2022/09/23 02:15:46;;;;;;;2.73;2.37;;;;;;;-145.69;100.00;72493.00;5095271;28;20202;-80
2022/09/23 02:18:18;;;;;;;7.77;2.80;;;;;;;-145.69;100.00;72463.13;5095226;28;20194;-80
2022/09/23 02:20:46;;;;;;;5.33;3.20;;;;;;;-145.69;100.00;72475.06;5095058;28;20690;-80
2022/09/23 02:23:17;;;;;;;4.57;2.83;;;;;;;-145.69;100.00;72479.06;5094781;28;20289;-79
2022/09/23 02:25:54;;;;;;;4.13;2.47;;;;;;;-145.69;100.00;72487.00;5094976;28;20280;-79
2022/09/23 02:28:30;;;;;;;5.83;3.10;;;;;;;-145.69;100.00;72496.97;5095127;28;20197;-80
2022/09/23 02:31:07;;;;;;;8.90;2.60;;;;;;;-145.69;100.00;72491.00;5094853;28;20201;-81
2022/09/23 02:33:43;;;;;;;3.67;2.80;;;;;;;-145.69;100.00;72498.97;5095189;28;20197;-81
2022/09/23 02:36:15;;;;;;;6.73;2.63;;;;;;;-145.69;100.00;72487.00;5093741;28;20544;-82
2022/09/23 02:38:46;;;;;;;7.23;3.00;;;;;;;-145.69;100.00;72471.09;5092940;28;20306;-80
2022/09/23 02:41:17;;;;;;;6.53;3.00;;;;;;;-145.69;100.00;72467.13;5094316;28;20202;-80
2022/09/23 02:43:50;;;;;;;3.20;2.60;;;;;;;-145.69;100.00;72473.09;5078091;28;20205;-80
2022/09/23 02:46:17;;;;;;;4.57;2.63;;;;;;;-145.69;100.00;72475.06;5074306;28;20198;-80
2022/09/23 02:48:49;;;;;;;4.33;2.87;;;;;;;-145.69;100.00;72487.00;5055969;28;20207;-79
2022/09/23 02:51:16;;;;;;;4.23;2.60;;;;;;;-145.69;100.00;72483.03;5053926;28;20257;-79
2022/09/23 02:53:44;;;;;;;3.97;2.70;;;;;;;-145.69;100.00;72481.03;5054020;28;20558;-79
2022/09/23 02:56:17;;;;;;;4.17;2.80;;;;;;;-145.69;100.00;72477.06;5054283;28;20219;-80
2022/09/23 02:58:45;;;;;;;4.20;2.90;;;;;;;-145.69;100.00;72491.00;5053915;28;20200;-79
2022/09/23 03:01:22;;;;;;;4.33;2.70;;;;;;;-145.69;100.00;72491.00;5054178;28;20542;-80
2022/09/23 03:04:05;;;;;;;7.07;3.17;;;;;;;-145.69;100.00;72491.00;5053674;28;20514;-79
2022/09/23 03:06:38;;;;;;;3.77;2.87;;;;;;;-145.69;100.00;72487.00;5053924;28;20628;-80
2022/09/23 03:09:10;;;;;;;5.50;3.47;;;;;;;-145.69;100.00;72496.97;5053825;28;20210;-79
2022/09/23 03:11:40;;;;;;;4.17;2.60;;;;;;;-145.69;100.00;72493.00;5056419;28;20230;-80
2022/09/23 03:14:16;;;;;;;5.57;2.73;;;;;;;-145.69;100.00;72504.94;5094069;28;20210;-80
2022/09/23 03:16:47;;;;;;;5.30;2.80;;;;;;;-145.69;100.00;72510.91;5093231;28;20546;-80
2022/09/23 03:19:28;;;;;;;4.87;2.30;;;;;;;-145.69;100.00;72512.91;5093737;28;20208;-79
2022/09/23 03:22:00;;;;;;;8.73;2.77;;;;;;;-145.69;100.00;72512.91;5093737;28;20206;-80
2022/09/23 03:24:31;;;;;;;3.33;2.47;;;;;;;-145.69;100.00;72518.88;5093732;28;20237;-80
2022/09/23 03:27:00;;;;;;;3.73;2.50;;;;;;;-145.69;100.00;72512.91;5093995;28;20274;-79
2022/09/23 03:29:27;;;;;;;3.63;2.70;;;;;;;-145.69;100.00;72516.88;5093743;28;20209;-79
2022/09/23 03:31:56;;;;;;;4.57;2.87;;;;;;;-145.69;100.00;72504.94;5093643;28;20226;-79
2022/09/23 03:34:28;;;;;;;6.50;3.30;;;;;;;-145.69;100.00;72493.00;5093697;28;20214;-79
2022/09/23 03:37:00;;;;;;;4.10;3.00;;;;;;;-145.69;100.00;72477.06;5093571;28;20200;-80
2022/09/23 03:39:34;;;;;;;5.43;3.13;;;;;;;-145.69;100.00;72485.03;5088869;28;20245;-80
2022/09/23 03:42:03;;;;;;;7.17;2.70;;;;;;;-145.69;100.00;72491.00;5060729;28;20284;-80
2022/09/23 03:44:36;;;;;;;4.87;2.50;;;;;;;-145.69;100.00;72508.91;5093795;28;20205;-80
2022/09/23 03:47:03;;;;;;;4.50;2.60;;;;;;;-145.69;100.00;72518.88;5093882;28;20201;-81
2022/09/23 03:49:35;;;;;;;3.63;2.50;;;;;;;-145.69;100.00;72536.78;5093125;28;20229;-81
2022/09/23 03:52:02;;;;;;;4.03;2.67;;;;;;;-145.69;100.00;72500.94;5092132;28;20320;-80
2022/09/23 03:54:29;;;;;;;3.73;2.47;;;;;;;-145.69;100.00;72498.97;5092081;28;20202;-80
2022/09/23 03:56:57;;;;;;;7.20;2.57;;;;;;;-145.69;100.00;72510.91;5092044;28;20202;-79
2022/09/23 03:59:24;;;;;;;3.63;2.63;;;;;;;-145.69;100.00;72512.91;5093051;28;20888;-80
2022/09/23 04:01:50;;;;;;;4.20;2.37;;;;;;;-145.69;100.00;72512.91;5093201;28;20590;-80
2022/09/23 04:04:17;;;;;;;4.00;2.53;;;;;;;-145.69;100.00;72512.91;5093414;28;20205;-80
2022/09/23 04:06:46;;;;;;;3.17;2.50;;;;;;;-145.69;100.00;72498.97;5093411;28;20233;-81
2022/09/23 04:09:13;;;;;;;3.10;2.30;;;;;;;-145.69;100.00;72494.97;5092692;28;20198;-80
2022/09/23 04:11:39;;;;;;;7.20;2.57;;;;;;;-145.69;100.00;72500.94;5091426;28;20255;-80
2022/09/23 04:14:06;;;;;;;4.87;2.63;;;;;;;-145.69;100.00;72500.94;5092457;28;20204;-81
2022/09/23 04:16:33;;;;;;;4.23;2.63;;;;;;;-145.69;100.00;72465.13;5092906;28;20237;-80
2022/09/23 04:18:59;;;;;;;2.77;2.07;;;;;;;-145.69;100.00;72463.13;5093345;28;20286;-80
2022/09/23 04:21:26;;;;;;;4.97;2.53;;;;;;;-145.69;100.00;72473.09;5094166;28;20202;-81
2022/09/23 04:23:54;;;;;;;3.20;2.63;;;;;;;-145.69;100.00;72477.06;5094046;28;20205;-81
2022/09/23 04:26:23;;;;;;;6.00;2.33;;;;;;;-145.69;100.00;72489.00;5093463;28;20206;-81
2022/09/23 04:28:49;;;;;;;3.80;2.17;;;;;;;-145.69;100.00;72496.97;5097400;28;20201;-80
2022/09/23 04:31:16;;;;;;;3.23;2.50;;;;;;;-145.69;100.00;72500.94;5097312;28;20202;-80
2022/09/23 04:33:42;;;;;;;3.43;2.33;;;;;;;-145.69;100.00;72500.94;5097181;28;20251;-80
2022/09/23 04:36:09;;;;;;;3.10;2.23;;;;;;;-145.69;100.00;72518.88;5097050;28;20198;-80
2022/09/23 04:38:35;;;;;;;6.73;2.47;;;;;;;-145.69;100.00;72504.94;5096909;28;20733;-80
2022/09/23 04:41:04;;;;;;;5.70;2.70;;;;;;;-145.69;100.00;72496.97;5096902;28;20221;-80
2022/09/23 04:43:31;;;;;;;4.10;2.47;;;;;;;-145.69;100.00;72496.97;5077498;28;20230;-80
2022/09/23 04:45:59;;;;;;;4.37;2.77;;;;;;;-145.69;100.00;72502.94;5076770;28;20562;-79
2022/09/23 04:48:25;;;;;;;2.80;2.20;;;;;;;-145.69;100.00;72494.97;5076357;28;20232;-80
2022/09/23 04:50:52;;;;;;;7.33;2.57;;;;;;;-145.69;100.00;72498.97;5076392;28;20235;-80
2022/09/23 04:53:19;;;;;;;3.43;2.37;;;;;;;-145.69;100.00;72500.94;5076375;28;20230;-80
2022/09/23 04:55:46;;;;;;;4.43;2.67;;;;;;;-145.69;100.00;72508.91;5076485;28;20530;-80
2022/09/23 04:58:14;;;;;;;4.13;2.40;;;;;;;-145.69;100.00;72510.91;5076283;28;20290;-80
2022/09/23 05:00:40;;;;;;;3.53;2.63;;;;;;;-145.69;100.00;72512.91;5076296;28;20222;-79
2022/09/23 05:03:07;;;;;;;4.60;2.60;;;;;;;-145.69;100.00;72504.94;5076272;28;20202;-79
2022/09/23 05:05:33;;;;;;;6.80;2.60;;;;;;;-145.69;100.00;72489.00;5076027;28;20210;-79
2022/09/23 05:08:00;;;;;;;5.67;2.63;;;;;;;-145.69;100.00;72491.00;5075956;28;20653;-80
2022/09/23 05:10:26;;;;;;;5.90;2.80;;;;;;;-145.69;100.00;72485.03;5075983;28;20213;-80
2022/09/23 05:12:53;;;;;;;6.43;2.60;;;;;;;-145.69;100.00;72487.00;5091931;28;20727;-81
2022/09/23 05:15:21;;;;;;;3.40;2.30;;;;;;;-145.69;100.00;72481.03;5096461;28;20201;-80
2022/09/23 05:17:47;;;;;;;4.97;2.97;;;;;;;-145.69;100.00;72473.09;5096185;28;20194;-80
2022/09/23 05:20:14;;;;;;;4.90;2.60;;;;;;;-145.69;100.00;72445.22;5096405;28;20653;-81
2022/09/23 05:22:40;;;;;;;3.80;2.73;;;;;;;-145.69;100.00;72437.25;5096169;28;20796;-80
2022/09/23 05:25:07;;;;;;;3.83;2.70;;;;;;;-145.69;100.00;72429.28;5096145;28;20224;-80
2022/09/23 05:27:34;;;;;;;4.73;2.33;;;;;;;-145.69;100.00;72419.34;5096282;28;20205;-80
2022/09/23 05:30:00;;;;;;;4.83;2.40;;;;;;;-145.69;100.00;72409.38;5096002;28;20202;-79
2022/09/23 05:32:28;;;;;;;5.47;2.40;;;;;;;-145.69;100.00;72399.44;5095842;28;20888;-80
2022/09/23 05:34:55;;;;;;;3.83;2.20;;;;;;;-145.69;100.00;72401.44;5095817;28;20205;-80
2022/09/23 05:37:22;;;;;;;4.13;2.20;;;;;;;-145.69;100.00;72407.41;5086262;28;20195;-80
2022/09/23 05:39:48;;;;;;;4.67;2.50;;;;;;;-145.69;100.00;72411.38;5074437;28;20673;-81
2022/09/23 05:42:16;;;;;;;7.37;1.97;;;;;;;-145.69;100.00;72401.44;5085918;28;20540;-81
2022/09/23 05:44:43;;;;;;;2.87;2.27;;;;;;;-145.69;100.00;72409.38;5094834;28;20255;-80
2022/09/23 05:47:09;;;;;;;3.73;2.20;;;;;;;-145.69;100.00;72409.38;5095792;28;20201;-81
2022/09/23 05:49:37;;;;;;;3.30;2.17;;;;;;;-145.69;100.00;72389.50;5095360;28;20229;-81
2022/09/23 05:52:03;;;;;;;6.23;2.30;;;;;;;-145.69;100.00;72389.50;5094958;28;20206;-81
2022/09/23 05:54:30;;;;;;;7.83;2.20;;;;;;;-145.69;100.00;72393.47;5094886;28;20202;-81
2022/09/23 05:56:56;;;;;;;4.40;2.00;;;;;;;-145.69;100.00;72381.53;5094550;28;20202;-81
2022/09/23 05:59:23;;;;;;;3.17;2.23;;;;;;;-145.69;100.00;72369.59;5095509;28;20203;-81
2022/09/23 06:01:49;;;;;;;4.10;2.40;;;;;;;-145.69;100.00;72361.63;5094679;28;20206;-81
2022/09/23 06:04:16;;;;;;;5.50;2.30;;;;;;;-145.69;100.00;72353.66;5094990;28;20660;-81
2022/09/23 06:06:43;;;;;;;3.47;2.20;;;;;;;-145.69;100.00;72341.72;5091616;28;20206;-81
2022/09/23 06:09:13;;;;;;;3.70;2.23;;;;;;;-145.69;100.00;72323.81;5093436;28;20225;-80
2022/09/23 06:11:41;;;;;;;3.37;2.07;;;;;;;-145.69;100.00;72309.88;5085460;28;20199;-81
2022/09/23 06:14:12;;;;;;;3.30;2.17;;;;;;;-145.69;100.00;72286.00;5074863;28;20222;-81
2022/09/23 06:16:38;;;;;;;3.30;1.87;;;;;;;-145.69;100.00;72278.03;5074878;28;20202;-79
2022/09/23 06:19:05;;;;;;;1.97;1.53;;;;;;;-145.69;100.00;72274.06;5074732;28;20203;-80
2022/09/23 06:21:32;;;;;;;2.27;1.80;;;;;;;-145.69;100.00;72258.13;5074715;28;20203;-81
2022/09/23 06:24:01;;;;;;;2.57;1.80;;;;;;;-145.69;100.00;72238.22;5074886;28;20224;-80
2022/09/23 06:26:30;;;;;;;3.60;1.93;;;;;;;-145.69;100.00;72228.28;5074669;28;20203;-80
2022/09/23 06:28:56;;;;;;;4.33;1.97;;;;;;;-145.69;100.00;72192.44;5074611;28;20203;-80
2022/09/23 06:31:23;;;;;;;2.27;1.80;;;;;;;-145.69;100.00;72166.56;5074461;28;20289;-80
2022/09/23 06:33:49;;;;;;;2.67;1.80;;;;;;;-145.69;100.00;72140.69;5074371;28;20230;-80
2022/09/23 06:36:16;;;;;;;3.17;2.00;;;;;;;-145.69;100.00;72126.78;5074592;28;20205;-79
2022/09/23 06:38:44;;;;;;;4.10;1.73;;;;;;;-145.69;100.00;72110.84;5074506;28;20207;-80
2022/09/23 06:41:12;;;;;;;4.23;2.07;;;;;;;-145.69;100.00;72090.94;5077993;28;20192;-80
2022/09/23 06:43:38;;;;;;;5.60;2.30;;;;;;;-145.69;100.00;72059.09;5094397;28;20210;-80
2022/09/23 06:46:06;;;;;;;4.17;1.53;;;;;;;-145.69;100.00;72043.19;5094725;28;20198;-79
2022/09/23 06:48:34;;;;;;;1.63;1.40;;;;;;;-145.69;100.00;72025.28;5094706;28;20198;-79
2022/09/23 06:51:03;;;;;;;1.80;1.40;;;;;;;-145.69;100.00;71995.41;5093771;28;20246;-79
2022/09/23 06:53:31;;;;;;;4.23;1.60;;;;;;;-145.69;100.00;71971.53;5094363;28;20587;-81
2022/09/23 06:55:59;;;;;;;2.77;1.60;;;;;;;-145.69;100.00;71951.63;5094153;28;20639;-79
2022/09/23 06:58:27;;;;;;;3.93;1.50;;;;;;;-145.69;100.00;71929.75;5094424;28;20227;-82
2022/09/23 07:00:53;;;;;;;2.07;1.30;;;;;;;-145.69;100.00;71903.88;5094298;28;20672;-81
2022/09/23 07:03:21;;;;;;;1.73;1.40;;;;;;;-145.69;100.00;71872.03;5094119;28;20199;-79
2022/09/23 07:05:47;;;;;;;4.40;1.70;;;;;;;-145.69;100.00;71840.19;5094228;28;20194;-80
2022/09/23 07:08:15;;;;;;;2.00;1.70;;;;;;;-145.69;100.00;71808.34;5094292;28;20202;-81
2022/09/23 07:10:41;;;;;;;2.30;1.30;;;;;;;-145.69;100.00;71772.53;5091701;28;20209;-80
2022/09/23 07:13:08;;;;;;;8.53;4.30;;;;;;;-145.69;100.00;71754.63;5073366;28;20237;-79
2022/09/23 07:15:36;;;;;;;2.77;1.50;;;;;;;-145.69;100.00;71716.81;5073842;28;20213;-81
2022/09/23 07:18:02;;;;;;;3.03;1.60;;;;;;;-145.69;100.00;71673.03;5073747;28;20565;-81
2022/09/23 07:20:29;;;;;;;5.23;1.70;;;;;;;-145.69;100.00;71643.19;5073700;28;20557;-80
2022/09/23 07:22:56;;;;;;;5.97;1.70;;;;;;;-145.69;100.00;71599.41;5073590;28;20213;-79
2022/09/23 07:25:22;;;;;;;2.60;1.40;;;;;;;-145.69;100.00;71547.66;5073453;28;20195;-81
2022/09/23 07:27:49;;;;;;;3.25;1.58;;;;;;;-145.69;100.00;71505.88;5072342;28;20653;-80
2022/09/23 07:30:16;;;;;;;2.30;1.45;;;;;;;-145.69;100.00;71462.09;5073574;28;20210;-81
2022/09/23 07:32:43;;;;;;;2.25;1.33;;;;;;;-145.69;100.00;71402.41;5072214;28;20205;-80
2022/09/23 07:35:10;;;;;;;4.25;1.40;;;;;;;-145.69;100.00;71376.53;5065530;28;20771;-80
2022/09/23 07:37:38;;;;;;;2.30;1.40;;;;;;;-145.69;100.00;71316.84;5052992;28;20213;-79
2022/09/23 07:40:05;;;;;;;3.28;2.35;;;;;;;-145.69;90.86;71308.88;5053118;28;20642;-80
2022/09/23 07:42:32;;;;;;;8.20;3.50;;;;;;;-145.69;87.46;71257.13;5087746;28;20201;-80
2022/09/23 07:44:58;;;;;;;24.33;7.75;;;;;;;-145.69;85.61;71259.13;5093602;28;20202;-80
2022/09/23 07:47:25;;;;;;;12.70;4.05;;;;;;;-145.69;86.98;71219.34;5093567;28;20194;-80
2022/09/23 07:49:54;;;;;;;7.60;2.63;;;;;;;-145.69;83.88;71181.53;5093391;28;20241;-78
2022/09/23 07:52:20;;;;;;;5.47;2.67;;;;;;;-145.69;80.56;71147.69;5093420;28;20194;-82
2022/09/23 07:54:47;;;;;;;10.40;3.42;;;;;;;-145.69;80.21;71129.78;5093123;28;20222;-80
2022/09/23 07:57:14;;;;;;;52.70;11.85;;;;;;;-145.69;82.42;71145.72;5092811;28;20351;-78
2022/09/23 07:59:42;;;;;;;31.20;8.13;;;;;;;-145.69;84.54;71143.72;5092166;28;20194;-79
2022/09/23 08:02:09;;;;;;;37.75;9.15;;;;;;;-145.69;82.35;71131.78;5093028;28;20686;-79
2022/09/23 08:04:36;;;;;;;13.85;4.40;;;;;;;-145.69;81.08;71137.75;5094141;28;20214;-80
2022/09/23 08:07:07;;;;;;;5.53;2.80;;;;;;;-145.69;80.62;71131.78;5053034;28;20209;-81
2022/09/23 08:09:42;;;;;;;4.88;2.20;;;;;;;-145.69;81.25;71145.72;5087216;28;20645;-80
2022/09/23 08:12:14;;;;;;;5.72;2.00;;;;;;;-145.69;80.87;71147.69;5093089;28;20248;-80
2022/09/23 08:14:45;;;;;;;3.78;1.88;;;;;;;-145.69;81.31;71139.75;5092419;28;20287;-80
2022/09/23 08:17:13;;;;;;;5.40;2.40;;;;;;;-145.69;81.22;71131.78;5092764;28;20437;-79
2022/09/23 08:19:39;;;;;;;4.28;2.10;;;;;;;-145.69;80.25;71137.75;5092779;28;20255;-83
2022/09/23 08:22:07;;;;;;;5.28;2.85;;;;;;;-145.69;82.67;71147.69;5092898;28;20210;-79
2022/09/23 08:24:37;;;;;;;4.43;2.70;;;;;;;-145.69;82.72;71137.75;5093142;28;20212;-80
2022/09/23 08:27:04;;;;;;;94.88;19.65;;;;;;;-145.69;87.19;71153.66;5093089;28;20198;-78
2022/09/23 08:29:30;;;;;;;39.78;11.68;;;;;;;-145.69;89.89;71187.50;5092236;28;20428;-77
2022/09/23 08:31:57;;;;;;;10.73;4.65;;;;;;;-145.69;85.24;71203.41;5092576;28;20688;-79
2022/09/23 08:34:26;;;;;;;11.30;4.65;;;;;;;-145.69;90.11;71195.47;5092729;28;20237;-88
2022/09/23 08:36:53;;;;;;;30.95;8.70;;;;;;;-145.69;88.41;71213.38;5068656;28;20573;-78
2022/09/23 08:39:21;;;;;;;14.57;6.03;;;;;;;-145.69;91.32;71213.38;5063483;28;20206;-80
2022/09/23 08:42:03;;;;;;;34.08;8.30;;;;;;;-145.69;90.66;71219.34;5055514;28;20226;-80
2022/09/23 08:44:45;;;;;;;12.20;4.75;;;;;;;-145.69;88.58;71205.41;5072212;28;20293;-78
2022/09/23 08:47:18;;;;;;;7.45;3.72;;;;;;;-145.69;94.64;71211.38;5072510;28;20195;-79
2022/09/23 08:49:54;;;;;;;52.97;10.02;;;;;;;-145.69;89.43;71203.41;5072464;28;20230;-78
2022/09/23 08:52:28;;;;;;;14.98;5.40;;;;;;;-145.69;93.09;71197.44;5072562;28;20198;-78
2022/09/23 08:54:56;;;;;;;5.88;3.13;;;;;;;-145.69;89.85;71217.34;5072378;28;20724;-79
2022/09/23 08:57:43;;;;;;;6.38;3.83;;;;;;;-145.69;89.87;71251.16;5072460;28;20202;-78
2022/09/23 09:00:15;;;;;;;7.60;3.67;;;;;;;-145.69;90.65;71273.06;5072541;28;20205;-80
2022/09/23 09:02:49;;;;;;;7.65;3.60;;;;;;;-145.69;92.17;71239.22;5072465;28;20211;-82
2022/09/23 09:05:22;;;;;;;8.77;4.00;;;;;;;-145.69;91.86;71207.38;5072475;28;20620;-79
2022/09/23 09:07:49;;;;;;;5.88;3.08;;;;;;;-145.69;87.02;71175.56;5072587;28;20202;-79
2022/09/23 09:10:21;;;;;;;11.52;3.85;;;;;;;-145.69;89.12;71171.56;5071692;28;20206;-77
2022/09/23 09:12:50;;;;;;;5.53;2.97;;;;;;;-145.69;88.85;71209.38;5073201;28;20205;-78
2022/09/23 09:15:20;;;;;;;7.60;3.30;;;;;;;-145.69;84.82;71195.47;5075862;28;20230;-79
2022/09/23 09:17:58;;;;;;;5.03;2.72;;;;;;;-145.69;89.32;71207.38;5075902;28;20198;-78
2022/09/23 09:20:33;;;;;;;8.50;3.13;;;;;;;-145.69;86.24;71211.38;5075444;28;20233;-79
2022/09/23 09:22:59;;;;;;;5.00;2.90;;;;;;;-145.69;86.19;71213.38;5075282;28;20210;-78
2022/09/23 09:25:43;;;;;;;6.07;3.10;;;;;;;-145.69;95.72;71175.56;5075150;28;20592;-78
2022/09/23 09:28:15;;;;;;;6.38;2.72;;;;;;;-145.69;87.80;71181.53;5075740;28;20203;-79
2022/09/23 09:30:43;;;;;;;10.98;2.75;;;;;;;-145.69;86.34;71201.41;5074550;28;20201;-78
2022/09/23 09:33:16;;;;;;;5.15;2.67;;;;;;;-145.69;89.64;71175.56;5075378;28;20201;-77
2022/09/23 09:36:00;;;;;;;9.20;2.67;;;;;;;-145.69;82.22;71183.50;5086558;28;20198;-79
2022/09/23 09:38:26;;;;;;;6.75;2.92;;;;;;;-145.69;82.22;71187.50;5095294;28;20202;-79
2022/09/23 09:41:00;;;;;;;7.55;2.95;;;;;;;-145.69;80.37;71191.47;5095786;28;20198;-80
2022/09/23 09:43:26;;;;;;;7.85;3.05;;;;;;;-145.69;79.17;71199.44;5076301;28;20650;-80
2022/09/23 09:46:07;;;;;;;7.03;2.70;;;;;;;-145.69;77.35;71199.44;5055147;28;20195;-80
2022/09/23 09:48:38;;;;;;;6.25;2.60;;;;;;;-145.69;80.54;71203.41;5054243;28;20206;-79
2022/09/23 09:51:19;;;;;;;7.85;2.08;;;;;;;-145.69;79.22;71215.34;5054649;28;20227;-81
2022/09/23 09:53:45;;;;;;;6.28;3.03;;;;;;;-145.69;80.41;71197.44;5054822;28;20231;-80
2022/09/23 09:56:16;;;;;;;5.63;2.58;;;;;;;-145.69;79.66;71175.56;5055261;28;20290;-79
2022/09/23 09:58:47;;;;;;;4.43;2.55;;;;;;;-145.69;77.06;71155.66;5054728;28;20199;-79
2022/09/23 10:01:19;;;;;;;7.10;2.30;;;;;;;-145.69;84.16;71123.81;5054499;28;20199;-80
2022/09/23 10:03:46;;;;;;;4.80;2.30;;;;;;;-145.69;76.79;71127.81;5072683;28;20683;-79
2022/09/23 10:06:20;;;;;;;5.43;2.67;;;;;;;-145.69;70.03;71119.84;5095652;28;20202;-81
2022/09/23 10:09:13;;;;;;;3.97;2.33;;;;;;;-145.69;65.69;71131.78;5095257;28;20194;-81
2022/09/23 10:11:41;;;;;;;3.65;2.15;;;;;;;-145.69;69.21;71139.75;5094551;28;20215;-80
2022/09/23 10:14:12;;;;;;;4.43;2.15;;;;;;;-145.69;71.86;71090.00;5094601;28;20272;-80
2022/09/23 10:16:40;;;;;;;3.53;1.60;;;;;;;-145.69;58.98;71105.91;5095385;28;20220;-80
2022/09/23 10:19:16;;;;;;;6.68;1.70;;;;;;;-145.69;60.21;71088.00;5094933;28;20568;-80
2022/09/23 10:21:42;;;;;;;5.78;1.75;;;;;;;-145.69;62.78;71060.16;5095156;28;20556;-80
2022/09/23 10:24:23;;;;;;;6.72;1.77;;;;;;;-145.69;59.53;71042.25;5094346;28;20209;-78
2022/09/23 10:26:59;;;;;;;2.70;1.80;;;;;;;-145.69;60.57;71074.09;5095000;28;20679;-82
2022/09/23 10:29:31;;;;;;;4.93;1.75;;;;;;;-145.69;59.33;71080.06;5094835;28;20205;-81
2022/09/23 10:32:19;;;;;;;3.53;1.88;;;;;;;-145.69;60.18;71099.94;5094817;28;20281;-79
2022/09/23 10:34:49;;;;;;;6.10;1.50;;;;;;;-145.69;62.67;71064.13;5077531;28;20708;-78
2022/09/23 10:37:23;;;;;;;4.38;2.10;;;;;;;-145.69;61.09;71052.19;5074584;28;20214;-81
2022/09/23 10:48:34;;;;;;;2.75;1.52;;;;;;;-145.69;67.10;71036.28;5074360;28;20229;-81
2022/09/23 10:51:07;;;;;;;6.32;2.80;;;;;;;-145.69;69.50;71042.25;5074098;28;20230;-80
2022/09/23 10:53:46;;;;;;;5.60;2.53;;;;;;;-145.69;66.58;71054.19;5083243;28;20198;-80
2022/09/23 10:56:24;;;;;;;10.13;3.08;;;;;;;-145.69;66.79;71056.16;5094526;28;20201;-80
2022/09/23 10:59:18;;;;;;;4.70;2.50;;;;;;;-145.69;66.01;71062.13;5094301;28;20209;-79
2022/09/23 11:02:01;;;;;;;6.10;2.80;;;;;;;-145.69;70.19;71014.38;5093871;28;20202;-81
2022/09/23 11:05:01;;;;;;;3.60;2.33;;;;;;;-145.69;67.35;71014.38;5087462;28;20665;-80
2022/09/23 11:07:34;;;;;;;5.28;2.53;;;;;;;-145.69;68.22;70980.56;5093896;28;20202;-80
2022/09/23 11:10:29;;;;;;;6.80;2.53;;;;;;;-145.69;61.70;70992.50;5092426;28;20252;-80
2022/09/23 11:13:06;;;;;;;8.10;3.03;;;;;;;-145.69;65.04;71006.44;5094055;28;20190;-82
2022/09/23 11:15:44;;;;;;;5.90;2.35;;;;;;;-145.69;65.38;70984.53;5092251;28;20228;-81
2022/09/23 11:18:34;;;;;;;3.97;2.20;;;;;;;-145.69;59.99;70960.66;5091822;28;20202;-81
2022/09/23 11:21:19;;;;;;;6.47;2.20;;;;;;;-145.69;60.19;70944.75;5093687;28;20201;-80
2022/09/23 11:24:01;;;;;;;4.30;2.03;;;;;;;-145.69;54.96;70936.78;5093928;28;20202;-82
2022/09/23 11:26:39;;;;;;;4.72;2.42;;;;;;;-145.69;56.89;70928.84;5092481;28;20560;-81
2022/09/23 11:29:41;;;;;;;7.45;2.33;;;;;;;-145.69;55.59;70964.66;5093356;28;20601;-79
2022/09/23 11:32:27;;;;;;;3.30;2.22;;;;;;;-145.69;58.31;70954.69;5093473;28;20198;-80
2022/09/23 11:35:02;;;;;;;5.57;2.80;;;;;;;-145.69;61.79;70940.78;5078467;28;20230;-80
2022/09/23 11:37:34;;;;;;;8.07;2.30;;;;;;;-145.69;60.61;70940.78;5091017;28;20197;-80